ヨハネスブルグ の空港の天気 - METARとTAF

ヨハネスブルグ/O.R.タンボ国際空港 ( FAOR / JNB ) - 南アフリカ ヨハネスブルグ
飛行場実況気象(Metar)
観測時間05/27 01:00 SAST (05/26 23:00 UTC)
風向・風速南 9m/s
視程10km以上
天気現象
なし
気温2℃
湿度60%
気圧1021hPa
METARFAOR 262300Z 19018KT CAVOK 02/M05 Q1021 NOSIG
過去の天気等 Google飛行場航空写真 Wunderground天気予報

過去48時間のMETAR

飛行場予報(TAF)
発表時間: 5/27 00:00 SAST (5/26 22:00 UTC)
予報対象時間: 27日2時 SAST ~ 28日8時 SAST
風向・風速南南西 6m/s
視程10km以上
なし
27日10時 SAST ~ 27日12時 SAST に徐々に
風向・風速不定 2m/s
TAF FAOR 262200Z 2700/2806 20012KT CAVOK TX12/2712Z TN00/2705Z
BECMG 2708/2710 VRB03KT